createdAt,value
2018-12-19T00:00:14.026Z,936.61
2018-12-19T00:01:14.431Z,936.59
2018-12-19T00:02:14.840Z,936.59
2018-12-19T00:03:15.973Z,936.58
2018-12-19T00:04:17.060Z,936.59
2018-12-19T00:05:18.023Z,936.53
2018-12-19T00:06:18.709Z,936.49
2018-12-19T00:07:20.118Z,936.45
2018-12-19T00:08:21.276Z,936.48
2018-12-19T00:09:21.684Z,936.43
2018-12-19T00:10:22.815Z,936.42
2018-12-19T00:11:23.775Z,936.43
2018-12-19T00:12:25.015Z,936.43
2018-12-19T00:13:25.980Z,936.42
2018-12-19T00:14:27.096Z,936.41
2018-12-19T00:15:28.225Z,936.45
2018-12-19T00:16:29.188Z,936.46
2018-12-19T00:17:29.596Z,936.5
2018-12-19T00:18:30.293Z,936.46
2018-12-19T00:19:30.980Z,936.47
2018-12-19T00:20:31.393Z,936.42
2018-12-19T00:21:32.078Z,936.47
2018-12-19T00:22:32.486Z,936.4
2018-12-19T00:23:32.893Z,936.37
2018-12-19T00:24:33.453Z,936.32
2018-12-19T00:25:33.688Z,936.28
2018-12-19T00:26:34.654Z,936.26
2018-12-19T00:27:35.337Z,936.27
2018-12-19T00:28:36.024Z,936.27
2018-12-19T00:29:37.152Z,936.27
2018-12-19T00:30:38.283Z,936.24
2018-12-19T00:31:39.249Z,936.27
2018-12-19T00:32:40.218Z,936.26
2018-12-19T00:33:40.628Z,936.29
2018-12-19T00:34:41.192Z,936.31
2018-12-19T00:35:41.872Z,936.31
2018-12-19T00:36:42.560Z,936.32
2018-12-19T00:37:42.968Z,936.32
2018-12-19T00:38:43.656Z,936.23
2018-12-19T00:39:44.060Z,936.22
2018-12-19T00:40:45.192Z,936.17
2018-12-19T00:41:45.436Z,936.13
2018-12-19T00:42:46.565Z,936.13
2018-12-19T00:43:47.248Z,936.12
2018-12-19T00:44:47.913Z,936.06
2018-12-19T00:45:48.359Z,936.06
2018-12-19T00:46:48.806Z,936.1
2018-12-19T00:47:49.841Z,936.04
2018-12-19T00:48:50.302Z,936.08
2018-12-19T00:49:50.709Z,936.11
2018-12-19T00:50:51.115Z,936.14
2018-12-19T00:51:51.803Z,936.13
2018-12-19T00:52:52.512Z,936.12
2018-12-19T00:53:53.038Z,936.14
2018-12-19T00:54:53.693Z,936.14
2018-12-19T00:55:54.101Z,936.12
2018-12-19T00:56:55.065Z,936.14
2018-12-19T00:57:55.750Z,936.09
2018-12-19T00:58:56.435Z,936.1
2018-12-19T00:59:56.842Z,936.14
2018-12-19T01:00:57.252Z,936.12
2018-12-19T01:01:57.714Z,936.23
2018-12-19T01:02:58.675Z,936.21
2018-12-19T01:03:59.363Z,936.19
2018-12-19T01:04:59.755Z,936.24
2018-12-19T01:06:00.168Z,936.16
2018-12-19T01:07:01.128Z,936.23
2018-12-19T01:08:02.097Z,936.19
2018-12-19T01:09:03.061Z,936.2
2018-12-19T01:10:03.470Z,936.24
2018-12-19T01:11:04.154Z,936.23
2018-12-19T01:12:05.286Z,936.22
2018-12-19T01:13:05.803Z,936.25
2018-12-19T01:14:06.932Z,936.27
2018-12-19T01:15:07.320Z,936.28
2018-12-19T01:16:07.576Z,936.36
2018-12-19T01:17:08.537Z,936.34
2018-12-19T01:18:08.719Z,936.34
2018-12-19T01:19:09.126Z,936.31
2018-12-19T01:20:09.809Z,936.33
2018-12-19T01:21:10.216Z,936.4
2018-12-19T01:22:10.904Z,936.37
2018-12-19T01:23:12.040Z,936.42
2018-12-19T01:24:12.447Z,936.49
2018-12-19T01:25:13.004Z,936.44
2018-12-19T01:26:13.448Z,936.48
2018-12-19T01:27:14.248Z,936.48
2018-12-19T01:28:15.212Z,936.5
2018-12-19T04:17:21.567Z,937.19
2018-12-19T04:18:22.691Z,937.18
2018-12-19T04:19:23.677Z,937.18
2018-12-19T04:20:23.926Z,937.15
2018-12-19T04:21:25.178Z,937.17
2018-12-19T04:22:26.154Z,937.23
2018-12-19T04:23:26.400Z,937.22
2018-12-19T04:24:27.370Z,937.11
2018-12-19T04:25:28.463Z,937.14
2018-12-19T04:26:28.710Z,937.2
2018-12-19T04:27:29.697Z,937.18
2018-12-19T04:28:30.425Z,937.17
2018-12-19T04:29:30.962Z,937.1
2018-12-19T04:30:31.215Z,937.07
2018-12-19T04:31:32.187Z,937.15
2018-12-19T04:32:33.154Z,937.02
2018-12-19T04:33:33.567Z,936.89
2018-12-19T04:34:33.834Z,937.1
2018-12-19T04:35:34.973Z,937.01
2018-12-19T04:36:36.111Z,936.96
2018-12-19T04:37:37.082Z,936.91
2018-12-19T04:38:38.181Z,937
2018-12-19T04:39:38.873Z,936.99
2018-12-19T04:40:39.855Z,936.91
2018-12-19T04:41:40.271Z,936.9
2018-12-19T04:42:41.520Z,937
2018-12-19T04:43:42.658Z,937.03
2018-12-19T04:44:43.908Z,936.98
2018-12-19T04:45:44.876Z,936.95
2018-12-19T04:46:45.598Z,936.99
2018-12-19T04:47:46.293Z,937.02
2018-12-19T04:48:47.399Z,936.97
2018-12-19T04:49:48.367Z,936.95
2018-12-19T04:50:49.341Z,937.04
2018-12-19T04:51:50.318Z,937.04
2018-12-19T04:52:51.291Z,937.04
2018-12-19T04:53:52.429Z,937
2018-12-19T04:54:52.680Z,936.99
2018-12-19T04:55:53.369Z,936.95
2018-12-19T04:56:53.783Z,936.96
2018-12-19T04:57:54.252Z,937.01
2018-12-19T04:58:55.204Z,936.98
2018-12-19T04:59:56.176Z,936.96
2018-12-19T05:00:56.425Z,936.88
2018-12-19T05:01:56.675Z,936.83
2018-12-19T05:02:57.228Z,936.81
2018-12-19T05:03:58.366Z,936.78
2018-12-19T05:04:59.437Z,936.79
2018-12-19T05:06:01.334Z,936.73
2018-12-19T05:07:00.476Z,936.72
2018-12-19T05:08:01.122Z,936.73
2018-12-19T05:09:01.505Z,936.8
2018-12-19T05:10:01.918Z,936.85
2018-12-19T05:11:02.618Z,936.83
2018-12-19T05:12:03.373Z,936.87
2018-12-19T05:13:04.068Z,936.85
2018-12-19T05:14:05.316Z,936.84
2018-12-19T05:15:06.005Z,936.81
2018-12-19T05:16:06.700Z,936.84
2018-12-19T05:17:07.834Z,936.92
2018-12-19T05:18:08.252Z,936.88
2018-12-19T05:19:08.928Z,936.86
2018-12-19T05:20:09.732Z,936.8
2018-12-19T05:21:10.146Z,936.76
2018-12-19T05:22:11.283Z,936.79
2018-12-19T05:23:11.697Z,936.8
2018-12-19T05:24:12.108Z,936.73
2018-12-19T05:25:12.520Z,936.71
2018-12-19T05:26:13.212Z,936.68
2018-12-19T05:27:13.920Z,936.72
2018-12-19T05:28:14.670Z,936.77
2018-12-19T05:29:15.209Z,936.72
2018-12-19T05:30:16.455Z,936.68
2018-12-19T05:31:17.147Z,936.76
2018-12-19T05:32:17.397Z,936.83
2018-12-19T05:33:18.368Z,936.84
2018-12-19T05:34:19.058Z,936.82
2018-12-19T05:35:20.474Z,936.78
2018-12-19T05:36:20.719Z,936.8
2018-12-19T05:37:21.690Z,936.85
2018-12-19T05:38:22.660Z,936.94
2018-12-19T05:39:23.080Z,936.93
2018-12-19T05:40:23.498Z,936.85
2018-12-19T05:41:24.193Z,936.8
2018-12-19T05:42:24.882Z,936.91
2018-12-19T05:43:25.293Z,937.03
2018-12-19T05:44:26.269Z,937.03
2018-12-19T05:45:27.237Z,936.99
2018-12-19T05:46:27.933Z,936.97
2018-12-19T05:47:28.906Z,937.12
2018-12-19T05:48:29.600Z,937.13
2018-12-19T05:49:30.755Z,937.01
2018-12-19T05:50:31.445Z,937.09
2018-12-19T05:51:32.136Z,937.2
2018-12-19T05:52:33.382Z,937.22
2018-12-19T05:53:34.350Z,937.13
2018-12-19T05:54:35.487Z,937.17
2018-12-19T05:55:36.179Z,937.27
2018-12-19T05:56:36.870Z,937.29
2018-12-19T05:57:37.841Z,937.16
2018-12-19T05:58:38.531Z,937.15
2018-12-19T05:59:40.510Z,937.24
2018-12-19T06:00:40.926Z,937.28
2018-12-19T06:01:42.340Z,937.2
2018-12-19T06:02:43.477Z,937.19
2018-12-19T06:03:43.720Z,937.16
2018-12-19T06:04:44.413Z,937.25
2018-12-19T06:05:45.546Z,937.18
2018-12-19T06:06:45.962Z,937.21
2018-12-19T06:07:47.099Z,937.33
2018-12-19T06:08:47.512Z,937.26
2018-12-19T06:09:48.337Z,937.32
2018-12-19T06:10:49.031Z,937.3
2018-12-19T06:11:49.721Z,937.33
2018-12-19T06:12:50.464Z,937.28
2018-12-19T06:13:51.599Z,937.25
2018-12-19T06:14:52.021Z,937.29
2018-12-19T06:15:52.329Z,937.3
2018-12-19T06:16:52.741Z,937.28
2018-12-19T06:17:53.218Z,937.31
2018-12-19T06:18:54.189Z,937.38
2018-12-19T06:19:55.029Z,937.27
2018-12-19T06:20:55.997Z,937.27
2018-12-19T06:21:56.413Z,937.3
2018-12-19T06:22:57.106Z,937.28
2018-12-19T06:23:58.093Z,937.25
2018-12-19T06:24:58.514Z,937.28
2018-12-19T06:25:58.927Z,937.27
2018-12-19T06:26:59.622Z,937.27
2018-12-19T06:27:59.868Z,937.27
2018-12-19T06:29:00.558Z,937.29
2018-12-19T06:30:01.664Z,937.36
2018-12-19T06:31:02.634Z,937.33
2018-12-19T06:32:03.325Z,937.27
2018-12-19T06:33:04.017Z,937.29
2018-12-19T06:34:04.985Z,937.35
2018-12-19T06:35:05.401Z,937.32
2018-12-19T06:36:06.151Z,937.34
2018-12-19T06:37:07.285Z,937.3
2018-12-19T06:38:08.425Z,937.36
2018-12-19T06:39:09.113Z,937.35
2018-12-19T06:40:09.793Z,937.22
2018-12-19T06:41:10.207Z,937.2
2018-12-19T06:42:10.620Z,937.23
2018-12-19T06:43:11.037Z,937.27
2018-12-19T06:44:11.725Z,937.35
2018-12-19T06:45:13.016Z,937.3
2018-12-19T06:46:13.434Z,937.33
2018-12-19T06:47:14.127Z,937.33
2018-12-19T06:48:15.100Z,937.32
2018-12-19T06:49:16.348Z,937.39
2018-12-19T06:50:16.895Z,937.42
2018-12-19T06:51:19.628Z,937.34
2018-12-19T06:52:20.769Z,937.38
2018-12-19T06:53:21.904Z,937.37
2018-12-19T06:54:22.875Z,937.37
2018-12-19T06:55:23.624Z,937.37
2018-12-19T06:56:24.321Z,937.37
2018-12-19T06:57:24.743Z,937.37
2018-12-19T06:58:25.205Z,937.41
2018-12-19T06:59:26.183Z,937.41
2018-12-19T07:00:27.166Z,937.37
2018-12-19T07:01:28.300Z,937.31
2018-12-19T07:02:28.717Z,937.34
2018-12-19T07:03:29.408Z,937.41
2018-12-19T07:04:29.824Z,937.4
2018-12-19T07:05:30.519Z,937.42
2018-12-19T07:06:30.934Z,937.46
2018-12-19T07:07:31.190Z,937.46
2018-12-19T07:08:31.886Z,937.4
2018-12-19T07:09:33.026Z,937.47
2018-12-19T07:10:39.421Z,937.48
2018-12-19T07:10:45.716Z,937.48
2018-12-19T07:11:46.557Z,937.47
2018-12-19T07:12:47.528Z,937.57
2018-12-19T07:13:48.225Z,937.55
2018-12-19T07:14:48.645Z,937.55
2018-12-19T07:15:49.405Z,937.6
2018-12-19T07:16:50.294Z,937.55
2018-12-19T07:17:51.529Z,937.52
2018-12-19T07:18:51.890Z,937.5
2018-12-19T07:19:52.585Z,937.55
2018-12-19T07:20:53.281Z,937.57
2018-12-19T07:21:53.753Z,937.63
2018-12-19T07:22:54.890Z,937.61
2018-12-19T07:23:55.307Z,937.58
2018-12-19T07:24:56.335Z,937.67
2018-12-19T07:25:57.309Z,937.67
2018-12-19T07:26:57.724Z,937.74
2018-12-19T07:27:58.145Z,937.78
2018-12-19T07:28:58.922Z,937.77
2018-12-19T07:30:00.062Z,937.72
2018-12-19T07:31:01.240Z,937.8
2018-12-19T07:32:02.240Z,937.8
2018-12-19T07:33:03.213Z,937.78
2018-12-19T07:34:03.907Z,937.83
2018-12-19T07:35:04.642Z,937.8
2018-12-19T07:36:04.889Z,937.75
2018-12-19T07:37:06.672Z,937.8
2018-12-19T07:37:17.173Z,937.78
2018-12-19T07:38:18.026Z,937.8
2018-12-19T07:39:19.001Z,937.86
2018-12-19T07:40:19.697Z,937.84
2018-12-19T07:41:20.996Z,937.83
2018-12-19T07:42:21.970Z,937.83
2018-12-19T07:43:22.668Z,937.87
2018-12-19T07:44:23.087Z,937.88
2018-12-19T07:45:24.068Z,937.87
2018-12-19T07:46:24.949Z,937.86
2018-12-19T07:47:25.370Z,937.87
2018-12-19T07:48:26.074Z,937.89
2018-12-19T07:49:26.931Z,937.87
2018-12-19T07:50:27.774Z,937.88
2018-12-19T07:51:28.505Z,937.84
2018-12-19T07:52:28.755Z,937.81
2018-12-19T07:53:29.460Z,937.81
2018-12-19T07:54:29.878Z,937.83
2018-12-19T07:55:30.295Z,937.83
2018-12-19T07:56:30.749Z,937.86
2018-12-19T07:57:30.999Z,937.91
2018-12-19T07:58:31.327Z,937.92
2018-12-19T07:59:32.311Z,937.91
2018-12-19T08:00:32.775Z,937.94
2018-12-19T08:01:33.475Z,937.97
2018-12-19T08:02:34.189Z,937.95
2018-12-19T08:03:34.671Z,937.99
2018-12-19T08:04:35.809Z,937.93
2018-12-19T08:05:36.509Z,937.97
2018-12-19T08:06:37.479Z,938.04
2018-12-19T08:07:37.902Z,938
2018-12-19T08:08:38.734Z,938.04
2018-12-19T08:09:39.153Z,938.03
2018-12-19T08:10:39.853Z,938.02
2018-12-19T08:11:40.547Z,938.09
2018-12-19T08:12:40.972Z,938.07
2018-12-19T08:13:41.945Z,938.05
2018-12-19T08:14:42.366Z,938
2018-12-19T08:15:43.061Z,938.06
2018-12-19T08:16:43.480Z,937.98
2018-12-19T08:17:43.900Z,937.96
2018-12-19T08:18:45.047Z,938.01
2018-12-19T08:19:45.779Z,938
2018-12-19T08:20:46.202Z,937.94
2018-12-19T08:21:46.681Z,937.94
2018-12-19T08:22:47.242Z,937.96
2018-12-19T08:23:47.734Z,938.02
2018-12-19T08:24:48.434Z,938.04
2018-12-19T08:25:49.579Z,937.99
2018-12-19T08:26:50.280Z,937.96
2018-12-19T08:27:51.424Z,937.95
2018-12-19T08:28:52.253Z,937.98
2018-12-19T08:29:52.950Z,937.97
2018-12-19T08:30:54.207Z,938.01
2018-12-19T08:31:55.118Z,938.05
2018-12-19T08:32:55.537Z,937.98
2018-12-19T08:33:55.838Z,937.97
2018-12-19T08:34:55.982Z,937.96
2018-12-19T08:35:56.404Z,937.94
2018-12-19T08:36:56.825Z,937.97
2018-12-19T08:37:57.808Z,937.94
2018-12-19T08:38:58.713Z,937.98
2018-12-19T08:39:58.869Z,937.95
2018-12-19T08:40:59.699Z,938
2018-12-19T08:42:00.120Z,938.02
2018-12-19T08:43:00.545Z,938.01
2018-12-19T08:44:01.841Z,938.03
2018-12-19T08:45:02.688Z,938.02
2018-12-19T08:46:04.669Z,938.02
2018-12-19T08:46:15.749Z,938.01
2018-12-19T08:47:16.209Z,938.06
2018-12-19T08:48:19.011Z,938.04
2018-12-19T08:48:29.969Z,938.05
2018-12-19T08:48:42.733Z,938.05
2018-12-19T08:48:55.184Z,938.05
2018-12-19T08:49:06.897Z,938.05
2018-12-19T08:50:07.911Z,938.07
2018-12-19T08:51:08.606Z,938.08
2018-12-19T08:52:09.027Z,938.06
2018-12-19T08:53:10.005Z,938.06
2018-12-19T08:54:10.425Z,938.09
2018-12-19T08:55:11.567Z,938.07
2018-12-19T08:56:11.985Z,938.05
2018-12-19T08:57:12.668Z,938
2018-12-19T08:58:13.086Z,938.07
2018-12-19T08:59:14.227Z,938.01
2018-12-19T09:00:14.779Z,937.98
2018-12-19T09:01:15.200Z,937.98
2018-12-19T09:02:16.355Z,937.98
2018-12-19T09:03:17.332Z,938.01
2018-12-19T09:04:17.750Z,938.06
2018-12-19T09:04:29.788Z,938.1
2018-12-19T09:05:30.656Z,938.09
2018-12-19T09:06:31.798Z,938.15
2018-12-19T09:07:32.497Z,938.1
2018-12-19T09:08:33.029Z,938.19
2018-12-19T09:09:34.451Z,938.19
2018-12-19T09:10:35.205Z,938.18
2018-12-19T09:11:35.902Z,938.14
2018-12-19T09:12:36.333Z,938.27
2018-12-19T09:13:37.034Z,938.25
2018-12-19T09:14:37.726Z,938.26
2018-12-19T09:15:38.407Z,938.34
2018-12-19T09:16:39.106Z,938.32
2018-12-19T09:17:40.245Z,938.3
2018-12-19T09:18:40.712Z,938.34
2018-12-19T09:19:41.193Z,938.39
2018-12-19T09:20:41.610Z,938.4
2018-12-19T09:21:42.754Z,938.27
2018-12-19T09:22:43.012Z,938.27
2018-12-19T09:23:44.154Z,938.3
2018-12-19T09:24:45.137Z,938.33
2018-12-19T09:25:46.246Z,938.37
2018-12-19T09:26:46.666Z,938.35
2018-12-19T09:27:47.809Z,938.36
2018-12-19T09:28:48.955Z,938.41
2018-12-19T09:29:49.379Z,938.27
2018-12-19T09:30:50.526Z,938.3
2018-12-19T09:31:50.982Z,938.29
2018-12-19T09:32:53.292Z,938.28
2018-12-19T09:33:54.440Z,938.34
2018-12-19T09:34:55.864Z,938.36
2018-12-19T09:35:56.691Z,938.28
2018-12-19T09:36:57.111Z,938.25
2018-12-19T09:37:57.533Z,938.32
2018-12-19T09:38:57.985Z,938.33
2018-12-19T09:39:58.406Z,938.31
2018-12-19T09:40:59.128Z,938.3
2018-12-19T09:42:00.099Z,938.3
2018-12-19T09:43:00.806Z,938.32
2018-12-19T09:44:01.061Z,938.33
2018-12-19T09:45:01.493Z,938.31
2018-12-19T09:46:01.771Z,938.3
2018-12-19T09:47:02.746Z,938.28
2018-12-19T09:48:03.173Z,938.22
2018-12-19T09:49:03.863Z,938.28
2018-12-19T09:49:15.904Z,938.27
2018-12-19T09:50:16.627Z,938.19
2018-12-19T09:51:17.769Z,938.16
2018-12-19T09:52:18.197Z,938.04
2018-12-19T09:53:18.618Z,938.04
2018-12-19T09:54:19.592Z,938.04
2018-12-19T09:55:20.744Z,938.01
2018-12-19T09:56:21.718Z,938
2018-12-19T09:57:22.417Z,937.93
2018-12-19T09:58:22.862Z,937.92
2018-12-19T09:59:23.393Z,937.9
2018-12-19T10:00:24.054Z,937.86
2018-12-19T10:01:24.478Z,937.85
2018-12-19T10:02:24.896Z,937.88
2018-12-19T10:03:25.596Z,937.87
2018-12-19T10:04:26.017Z,937.86
2018-12-19T10:05:27.157Z,937.9
2018-12-19T10:06:28.305Z,937.88
2018-12-19T10:07:30.050Z,937.9
2018-12-19T10:08:30.757Z,937.9
2018-12-19T10:09:31.862Z,937.87
2018-12-19T10:10:32.295Z,937.87
2018-12-19T10:11:32.991Z,937.87
2018-12-19T10:12:33.969Z,937.83
2018-12-19T10:13:35.133Z,937.81
2018-12-19T10:14:35.832Z,937.8
2018-12-19T10:15:36.809Z,937.78
2018-12-19T10:16:37.829Z,937.75
2018-12-19T10:17:41.608Z,937.83
2018-12-19T10:18:42.746Z,937.82
2018-12-19T10:19:43.003Z,937.87
2018-12-19T10:20:43.502Z,937.81
2018-12-19T10:21:44.247Z,937.8
2018-12-19T10:22:45.338Z,937.81
2018-12-19T10:23:46.483Z,937.82
2018-12-19T10:24:48.230Z,937.79
2018-12-19T10:25:48.601Z,937.76
2018-12-19T10:26:49.022Z,937.74
2018-12-19T10:27:49.718Z,937.76
2018-12-19T10:28:50.144Z,937.7
2018-12-19T10:29:50.597Z,937.7
2018-12-19T10:30:51.277Z,937.69
2018-12-19T10:31:51.979Z,937.7
2018-12-19T10:32:52.679Z,937.68
2018-12-19T10:33:53.098Z,937.65
2018-12-19T10:34:53.350Z,937.71
2018-12-19T10:35:53.775Z,937.68
2018-12-19T10:36:54.914Z,937.74
2018-12-19T10:37:55.223Z,937.75
2018-12-19T10:38:55.929Z,937.77
2018-12-19T10:39:56.554Z,937.78
2018-12-19T10:40:57.143Z,937.78
2018-12-19T10:41:57.563Z,937.79
2018-12-19T10:42:57.980Z,937.83
2018-12-19T10:43:58.677Z,937.78
2018-12-19T10:44:59.095Z,937.78
2018-12-19T10:46:00.235Z,937.79
2018-12-19T10:47:00.482Z,937.82
2018-12-19T10:48:01.791Z,937.81
2018-12-19T10:49:02.487Z,937.73
2018-12-19T10:50:02.907Z,937.75
2018-12-19T10:51:03.175Z,937.8
2018-12-19T10:52:03.872Z,937.75
2018-12-19T10:53:04.319Z,937.76
2018-12-19T10:54:04.741Z,937.76
2018-12-19T10:55:05.172Z,937.75
2018-12-19T10:56:06.592Z,937.78
2018-12-19T10:57:07.274Z,937.77
2018-12-19T10:58:07.627Z,937.76
2018-12-19T10:59:08.616Z,937.72
2018-12-19T11:00:09.687Z,937.69
2018-12-19T11:01:09.931Z,937.67
2018-12-19T11:02:10.386Z,937.72
2018-12-19T11:03:10.698Z,937.62
2018-12-19T11:04:12.124Z,937.65
2018-12-19T11:05:13.555Z,937.61
2018-12-19T11:06:13.974Z,937.6
2018-12-19T11:07:14.812Z,937.62
2018-12-19T11:08:15.788Z,937.6
2018-12-19T11:09:16.231Z,937.65
2018-12-19T11:10:16.650Z,937.6
2018-12-19T11:11:16.972Z,937.63
2018-12-19T11:12:18.268Z,937.61
2018-12-19T11:13:19.019Z,937.57
2018-12-19T11:14:19.271Z,937.57
2018-12-19T11:15:20.244Z,937.46
2018-12-19T11:16:20.720Z,937.4
2018-12-19T11:17:21.420Z,937.34
2018-12-19T11:18:22.122Z,937.32
2018-12-19T11:19:22.875Z,937.25
2018-12-19T11:20:23.588Z,937.26
2018-12-19T11:21:24.619Z,937.24
2018-12-19T11:22:25.762Z,937.17
2018-12-19T11:23:26.904Z,937.16
2018-12-19T11:24:29.247Z,937.17
2018-12-19T11:25:29.642Z,937.13
2018-12-19T11:26:30.072Z,937.17
2018-12-19T11:27:30.490Z,937.17
2018-12-19T11:28:31.464Z,937.17
2018-12-19T11:29:31.886Z,937.15
2018-12-19T11:30:33.095Z,937.19
2018-12-19T11:31:33.960Z,937.22
2018-12-19T11:32:34.668Z,937.27
2018-12-19T11:33:35.085Z,937.26
2018-12-19T11:34:35.525Z,937.26
2018-12-19T11:35:35.952Z,937.25
2018-12-19T11:36:36.387Z,937.28
2018-12-19T11:37:36.801Z,937.24
2018-12-19T11:38:37.795Z,937.23
2018-12-19T11:39:38.217Z,937.22
2018-12-19T11:40:39.200Z,937.16
2018-12-19T11:41:39.955Z,937.2
2018-12-19T11:42:41.096Z,937.18
2018-12-19T11:43:41.581Z,937.16
2018-12-19T11:44:42.559Z,937.1
2018-12-19T11:45:43.711Z,937.09
2018-12-19T11:46:44.329Z,937.09
2018-12-19T11:47:45.471Z,937.08
2018-12-19T11:48:46.611Z,937.07
2018-12-19T11:49:47.587Z,937.06
2018-12-19T11:50:48.009Z,937.03
2018-12-19T11:51:48.915Z,937.01
2018-12-19T11:52:49.642Z,937.01
2018-12-19T11:53:50.338Z,936.97
2018-12-19T11:54:51.038Z,936.98
2018-12-19T11:55:51.740Z,936.97
2018-12-19T11:56:52.436Z,936.88
2018-12-19T11:57:52.865Z,936.9
2018-12-19T11:58:53.923Z,936.87
2018-12-19T11:59:54.347Z,936.89
2018-12-19T12:00:54.604Z,936.89
2018-12-19T12:01:55.446Z,936.94
2018-12-19T12:02:56.042Z,936.93
2018-12-19T12:03:56.785Z,936.91
2018-12-19T12:04:56.964Z,936.92
2018-12-19T12:05:57.382Z,936.94
2018-12-19T12:06:58.080Z,936.93
2018-12-19T12:07:59.058Z,936.91
2018-12-19T12:09:00.051Z,936.91
2018-12-19T12:10:01.008Z,936.88
2018-12-19T12:11:01.264Z,936.9
2018-12-19T12:12:02.106Z,936.9
2018-12-19T12:13:03.086Z,936.88
2018-12-19T12:14:03.836Z,936.9
2018-12-19T12:15:04.542Z,936.86
2018-12-19T12:16:05.522Z,936.86
2018-12-19T12:17:06.260Z,936.89
2018-12-19T12:18:06.709Z,936.86
2018-12-19T12:19:07.268Z,936.84
2018-12-19T12:20:07.980Z,936.86
2018-12-19T12:21:08.741Z,936.82
2018-12-19T12:22:08.993Z,936.82
2018-12-19T12:23:10.249Z,936.78
2018-12-19T12:24:11.042Z,936.77
2018-12-19T12:25:12.190Z,936.78
2018-12-19T12:26:13.163Z,936.73
2018-12-19T12:27:13.867Z,936.73
2018-12-19T12:28:14.091Z,936.74
2018-12-19T12:29:15.251Z,936.72
2018-12-19T12:30:15.673Z,936.73
2018-12-19T12:31:16.393Z,936.71
2018-12-19T12:32:17.379Z,936.7
2018-12-19T12:33:17.802Z,936.69
2018-12-19T12:34:18.505Z,936.64
2018-12-19T12:35:19.205Z,936.59
2018-12-19T12:36:20.060Z,936.57
2018-12-19T12:37:20.802Z,936.61
2018-12-19T12:38:21.609Z,936.57
2018-12-19T12:39:22.424Z,936.57
2018-12-19T12:40:22.949Z,936.52
2018-12-19T12:41:23.933Z,936.58
2018-12-19T12:42:24.490Z,936.54
2018-12-19T12:43:25.882Z,936.53
2018-12-19T12:44:26.270Z,936.58
2018-12-19T12:45:27.410Z,936.57
2018-12-19T12:46:28.391Z,936.55
2018-12-19T12:47:28.863Z,936.53
2018-12-19T12:48:30.120Z,936.53
2018-12-19T12:49:30.542Z,936.5
2018-12-19T12:50:30.968Z,936.48
2018-12-19T12:51:31.388Z,936.45
2018-12-19T12:52:31.948Z,936.44
2018-12-19T12:53:32.643Z,936.47
2018-12-19T12:54:33.068Z,936.49
2018-12-19T12:55:34.721Z,936.45
2018-12-19T12:56:34.893Z,936.41
2018-12-19T12:57:35.417Z,936.36
2018-12-19T12:58:35.818Z,936.4
2018-12-19T12:59:36.824Z,936.4
2018-12-19T13:00:39.017Z,936.38
2018-12-19T13:01:39.828Z,936.36
2018-12-19T13:02:40.937Z,936.38
2018-12-19T13:03:41.412Z,936.43
2018-12-19T13:04:41.995Z,936.46
2018-12-19T13:05:42.390Z,936.43
2018-12-19T13:06:42.594Z,936.46
2018-12-19T13:07:45.250Z,936.43
2018-12-19T13:07:55.524Z,936.46
2018-12-19T13:08:55.817Z,936.47
2018-12-19T13:09:56.682Z,936.48
2018-12-19T13:10:57.357Z,936.47
2018-12-19T13:11:59.499Z,936.46
2018-12-19T13:13:00.586Z,936.44
2018-12-19T13:14:01.381Z,936.43
2018-12-19T13:15:01.758Z,936.44
2018-12-19T13:16:02.758Z,936.41
2018-12-19T13:17:03.457Z,936.41
2018-12-19T13:18:04.430Z,936.4
2018-12-19T13:19:05.841Z,936.36
2018-12-19T13:20:06.264Z,936.36
2018-12-19T13:21:07.401Z,936.29
2018-12-19T13:22:08.536Z,936.28
2018-12-19T13:23:09.341Z,936.32
2018-12-19T13:24:10.314Z,936.31
2018-12-19T13:25:11.342Z,936.31
2018-12-19T13:26:12.484Z,936.28
2018-12-19T13:27:12.909Z,936.27
2018-12-19T13:28:13.443Z,936.27
2018-12-19T13:29:13.738Z,936.21
2018-12-19T13:30:14.676Z,936.19
2018-12-19T13:31:15.638Z,936.17
2018-12-19T13:32:16.158Z,936.16
2018-12-19T13:33:17.299Z,936.17
2018-12-19T13:34:18.863Z,936.15
2018-12-19T13:35:19.066Z,936.15
2018-12-19T13:36:19.548Z,936.18
2018-12-19T13:37:20.077Z,936.13
2018-12-19T13:38:20.524Z,936.16
2018-12-19T13:39:21.653Z,936.15
2018-12-19T13:40:22.876Z,936.16
2018-12-19T13:41:22.499Z,936.07
2018-12-19T13:42:23.194Z,936.09
2018-12-19T13:43:24.175Z,936.12
2018-12-19T13:44:24.868Z,936.09
2018-12-19T13:45:25.587Z,936.06
2018-12-19T13:46:26.312Z,936.09
2018-12-19T13:47:27.100Z,936.06
2018-12-19T13:48:28.240Z,936.09
2018-12-19T13:49:29.764Z,936.07
2018-12-19T13:50:31.280Z,936.03
2018-12-19T13:51:31.407Z,936.02
2018-12-19T13:52:32.388Z,936.03
2018-12-19T13:53:32.917Z,935.99
2018-12-19T13:54:34.075Z,936.02
2018-12-19T13:55:34.659Z,936
2018-12-19T13:56:36.832Z,936.04
2018-12-19T13:57:37.370Z,936.05
2018-12-19T13:58:38.075Z,936.05
2018-12-19T13:59:38.759Z,936.02
2018-12-19T14:00:39.458Z,935.99
2018-12-19T14:01:40.436Z,935.93
2018-12-19T14:02:40.918Z,935.94
2018-12-19T14:03:41.409Z,935.92
2018-12-19T14:04:43.205Z,935.91
2018-12-19T14:05:43.881Z,935.91
2018-12-19T14:06:44.862Z,935.89
2018-12-19T14:07:45.281Z,935.88
2018-12-19T14:08:46.569Z,935.88
2018-12-19T14:09:46.789Z,935.88
2018-12-19T14:10:47.706Z,935.88
2018-12-19T14:11:48.945Z,935.85
2018-12-19T14:12:50.082Z,935.86
2018-12-19T14:13:51.260Z,935.85
2018-12-19T14:14:52.521Z,935.84
2018-12-19T14:15:52.714Z,935.85
2018-12-19T14:16:53.414Z,935.88
2018-12-19T14:17:54.450Z,935.84
2018-12-19T14:18:55.426Z,935.86
2018-12-19T14:19:56.505Z,935.8
2018-12-19T14:20:56.781Z,935.86
2018-12-19T14:21:58.034Z,935.8
2018-12-19T14:22:59.082Z,935.83
2018-12-19T14:24:00.500Z,935.81
2018-12-19T14:25:00.756Z,935.81
2018-12-19T14:26:01.733Z,935.83
2018-12-19T14:27:02.434Z,935.82
2018-12-19T14:28:03.413Z,935.82
2018-12-19T14:29:04.408Z,935.9
2018-12-19T14:30:04.686Z,935.87
2018-12-19T14:31:05.380Z,935.89
2018-12-19T14:32:05.805Z,935.9
2018-12-19T14:33:06.948Z,935.9
2018-12-19T14:34:08.088Z,935.87
2018-12-19T14:35:09.062Z,935.9
2018-12-19T14:36:09.766Z,935.87
2018-12-19T14:37:10.481Z,935.9
2018-12-19T14:38:11.634Z,935.92
2018-12-19T14:39:12.607Z,935.92
2018-12-19T14:40:13.373Z,935.9
2018-12-19T14:41:16.003Z,935.9
2018-12-19T14:42:19.499Z,935.93
2018-12-19T14:43:19.916Z,935.95
2018-12-19T14:44:20.611Z,935.91
2018-12-19T14:45:21.325Z,935.98
2018-12-19T14:46:21.529Z,935.93
2018-12-19T14:47:22.503Z,935.91
2018-12-19T14:48:23.202Z,935.88
2018-12-19T14:49:23.895Z,935.87
2018-12-19T14:50:26.051Z,935.89
2018-12-19T14:50:36.568Z,935.89
2018-12-19T14:51:37.397Z,935.91
2018-12-19T14:52:38.268Z,935.91
2018-12-19T14:53:39.410Z,935.91
2018-12-19T14:54:39.863Z,935.87
2018-12-19T14:55:40.578Z,935.89
2018-12-19T14:56:41.039Z,935.83
2018-12-19T14:57:43.044Z,935.82
2018-12-19T14:58:42.827Z,935.82
2018-12-19T14:59:45.053Z,935.81
2018-12-19T14:59:56.222Z,935.8
2018-12-19T15:00:09.493Z,935.81
2018-12-19T15:00:21.819Z,935.78
2018-12-19T15:00:35.274Z,935.79
2018-12-19T15:01:35.744Z,935.81
2018-12-19T15:02:36.161Z,935.79
2018-12-19T15:03:36.587Z,935.77
2018-12-19T15:04:37.350Z,935.81
2018-12-19T15:05:38.329Z,935.74
2018-12-19T15:06:39.019Z,935.74
2018-12-19T15:07:39.446Z,935.73
2018-12-19T15:08:40.418Z,935.64
2018-12-19T15:09:41.389Z,935.64
2018-12-19T15:10:41.846Z,935.6
2018-12-19T15:11:42.232Z,935.58
2018-12-19T15:12:43.217Z,935.55
2018-12-19T15:13:44.199Z,935.43
2018-12-19T15:14:44.897Z,935.41
2018-12-19T15:15:45.595Z,935.36
2018-12-19T15:16:46.567Z,935.34